Time;durP1;ratioP1;P1;durP2;ratioP2;P2;SDS_P1;SDS_P2;PMS_P1;PMS_P2;Temp;Humidity;BMP_temperature;BMP_pressure;BME280_temperature;BME280_humidity;BME280_pressure;Samples;Min_cycle;Max_cycle;Signal;HPM_P1;HPM_P2
2021/06/06 00:01:17;;;;;;;8.15;3.42;;;;;;;33.90;41.52;160101.30;1729803;83;21346;-77
2021/06/06 00:03:52;;;;;;;5.05;3.37;;;;;;;33.86;41.76;160090.59;1729702;83;21366;-77
2021/06/06 00:06:34;;;;;;;6.45;3.40;;;;;;;33.81;42.04;160078.56;1726944;83;21201;-78
2021/06/06 00:09:11;;;;;;;7.20;3.67;;;;;;;33.71;42.35;160051.88;1729492;83;21332;-78
2021/06/06 00:11:51;;;;;;;7.08;3.30;;;;;;;33.64;42.53;160033.13;1729561;83;21172;-78
2021/06/06 00:14:34;;;;;;;5.40;3.20;;;;;;;33.63;42.76;160029.14;1738075;82;21842;-78
2021/06/06 00:17:11;;;;;;;7.78;3.62;;;;;;;33.65;42.87;160034.50;1737916;82;21208;-78
2021/06/06 00:19:43;;;;;;;7.30;3.67;;;;;;;33.67;42.93;160041.16;1738093;82;21390;-78
2021/06/06 00:22:17;;;;;;;7.22;3.42;;;;;;;33.62;43.12;160027.78;1737985;82;21247;-78
2021/06/06 00:24:50;;;;;;;5.92;3.27;;;;;;;33.62;43.22;160027.78;1737867;82;21339;-78
2021/06/06 00:27:23;;;;;;;6.50;3.30;;;;;;;33.66;43.33;160038.48;1738048;82;21406;-78
2021/06/06 00:29:57;;;;;;;6.40;3.65;;;;;;;33.70;43.38;160049.19;1738266;82;21322;-78
2021/06/06 00:32:30;;;;;;;6.95;3.83;;;;;;;33.69;43.47;160046.52;1738260;82;21818;-77
2021/06/06 00:35:04;;;;;;;5.95;3.72;;;;;;;33.67;43.67;160039.84;1737862;82;21228;-78
2021/06/06 00:37:36;;;;;;;5.20;3.60;;;;;;;33.62;43.79;160027.78;1738257;82;21822;-78
2021/06/06 00:40:12;;;;;;;4.55;3.75;;;;;;;33.59;43.99;160018.39;1737878;82;21208;-78
2021/06/06 00:42:46;;;;;;;5.40;3.45;;;;;;;33.60;44.07;160021.11;1738051;82;21338;-78
2021/06/06 00:45:21;;;;;;;5.05;3.40;;;;;;;33.54;44.20;160006.38;1738193;82;21826;-78
2021/06/06 00:47:54;;;;;;;6.03;3.20;;;;;;;33.52;44.20;159999.72;1738019;82;21362;-78
2021/06/06 00:50:32;;;;;;;7.75;3.87;;;;;;;33.45;44.31;159982.34;1737998;80;21204;-78
2021/06/06 00:53:10;;;;;;;4.33;3.62;;;;;;;33.42;44.31;159973.00;1738174;82;21831;-78
2021/06/06 00:55:42;;;;;;;7.83;3.33;;;;;;;33.41;44.41;159970.33;1738031;82;21421;-78
2021/06/06 00:58:15;;;;;;;5.30;3.58;;;;;;;33.39;44.46;159964.98;1738041;82;21224;-78
2021/06/06 01:00:50;;;;;;;4.97;3.58;;;;;;;33.68;44.09;160042.53;1737944;82;21185;-78
2021/06/06 01:03:23;;;;;;;5.70;3.83;;;;;;;33.71;43.85;160051.88;1738257;82;21390;-78
2021/06/06 01:06:01;;;;;;;6.15;3.70;;;;;;;33.69;43.78;160045.14;1738097;82;21319;-78
2021/06/06 01:08:34;;;;;;;4.62;3.83;;;;;;;33.69;43.70;160045.14;1738077;82;21227;-78
2021/06/06 01:11:26;;;;;;;7.17;3.72;;;;;;;33.68;43.74;160043.84;1738041;82;21209;-78
2021/06/06 01:14:04;;;;;;;8.90;3.42;;;;;;;33.60;43.85;160021.11;1738116;82;21362;-78
2021/06/06 01:16:45;;;;;;;6.62;3.70;;;;;;;33.59;43.76;160019.75;1737973;82;21196;-78
2021/06/06 01:20:10;;;;;;;5.47;3.35;;;;;;;33.59;43.64;160018.39;1738109;82;21160;-78
2021/06/06 01:23:02;;;;;;;3.40;3.00;;;;;;;33.56;43.55;160010.41;1737632;82;21382;-78
2021/06/06 01:25:42;;;;;;;9.00;5.15;;;;;;;33.52;43.50;159999.72;1738232;82;21866;-77
2021/06/06 01:28:21;;;;;;;6.72;3.55;;;;;;;33.50;43.51;159994.36;1738056;82;21188;-78
2021/06/06 01:30:57;;;;;;;8.33;3.55;;;;;;;33.49;43.54;159993.05;1738180;82;21369;-78
2021/06/06 01:33:38;;;;;;;4.80;3.20;;;;;;;33.48;43.59;159989.00;1738014;82;21342;-78
2021/06/06 01:36:31;;;;;;;6.47;3.70;;;;;;;33.45;43.52;159980.98;1737912;82;21719;-77
2021/06/06 01:39:24;;;;;;;6.55;3.35;;;;;;;33.43;43.55;159975.69;1738004;82;21330;-78
2021/06/06 01:42:02;;;;;;;5.65;3.55;;;;;;;33.39;43.49;159966.30;1737832;82;21256;-78
2021/06/06 01:44:37;;;;;;;6.83;4.08;;;;;;;33.31;43.65;159944.94;1737934;82;21224;-78
2021/06/06 01:47:20;;;;;;;5.03;3.60;;;;;;;33.07;44.11;159878.12;1737914;82;21731;-78
2021/06/06 01:49:58;;;;;;;5.85;3.90;;;;;;;32.99;44.45;159858.09;1737904;80;21342;-78
2021/06/06 01:52:34;;;;;;;5.55;3.67;;;;;;;32.93;44.64;159840.78;1737865;82;21342;-78
2021/06/06 01:55:10;;;;;;;9.98;3.98;;;;;;;32.86;45.08;159823.42;1737942;82;21173;-78
2021/06/06 01:57:45;;;;;;;9.15;3.65;;;;;;;32.97;45.01;159852.80;1737341;82;21194;-78
2021/06/06 02:00:33;;;;;;;9.25;3.90;;;;;;;32.89;45.17;159831.39;1737938;82;21862;-78
2021/06/06 02:03:07;;;;;;;4.67;3.27;;;;;;;32.99;45.08;159856.78;1736489;82;21338;-78
2021/06/06 02:05:42;;;;;;;8.05;3.50;;;;;;;33.03;45.22;159867.47;1737985;81;21243;-78
2021/06/06 02:08:17;;;;;;;7.03;3.47;;;;;;;33.08;45.09;159880.80;1737933;82;21751;-78
2021/06/06 02:11:02;;;;;;;3.85;2.77;;;;;;;33.03;45.38;159868.78;1738026;82;21406;-78
2021/06/06 02:13:44;;;;;;;5.83;3.15;;;;;;;33.25;45.07;159928.94;1712273;82;21402;-78
2021/06/06 02:16:22;;;;;;;6.55;3.60;;;;;;;33.32;44.93;159946.31;1737985;82;21247;-77
2021/06/06 02:18:55;;;;;;;5.90;3.45;;;;;;;33.11;45.46;159890.19;1738025;82;21322;-78
2021/06/06 02:21:28;;;;;;;6.20;3.05;;;;;;;33.09;45.48;159883.47;1738201;82;21334;-78
2021/06/06 02:24:01;;;;;;;7.58;4.53;;;;;;;33.17;45.37;159906.23;1737987;82;21188;-78
2021/06/06 02:26:59;;;;;;;7.58;3.67;;;;;;;33.18;45.35;159908.91;1737886;82;21232;-78
2021/06/06 02:29:58;;;;;;;5.75;3.92;;;;;;;33.20;45.28;159915.56;1738200;82;21834;-79
2021/06/06 02:33:01;;;;;;;7.50;3.87;;;;;;;33.08;45.40;159880.80;1737789;82;21181;-78
2021/06/06 02:35:43;;;;;;;6.47;2.87;;;;;;;33.15;45.39;159899.56;1738152;82;21689;-79
2021/06/06 02:38:20;;;;;;;11.40;3.00;;;;;;;33.27;45.10;159934.25;1737858;82;21231;-78
2021/06/06 02:40:59;;;;;;;6.47;3.62;;;;;;;33.06;45.57;159876.81;1736505;82;21164;-78
2021/06/06 02:43:58;;;;;;;4.12;3.12;;;;;;;33.04;45.69;159870.16;1738077;82;21371;-78
2021/06/06 02:46:32;;;;;;;5.83;2.90;;;;;;;33.16;45.73;159902.25;1738193;82;21318;-79
2021/06/06 02:49:12;;;;;;;9.00;3.67;;;;;;;33.49;45.34;159993.05;1738005;82;21224;-78
2021/06/06 02:51:58;;;;;;;6.53;4.47;;;;;;;33.47;45.11;159986.33;1754881;80;21339;-78
2021/06/06 02:54:42;;;;;;;9.15;3.98;;;;;;;33.45;44.53;159982.34;1767098;81;21371;-78
2021/06/06 02:57:18;;;;;;;8.75;4.42;;;;;;;33.46;44.36;159985.02;1766972;81;21213;-79
2021/06/06 03:00:06;;;;;;;6.40;3.98;;;;;;;33.46;44.29;159983.66;1767009;80;21193;-79
2021/06/06 03:02:44;;;;;;;7.20;4.40;;;;;;;33.47;44.30;159987.69;1766977;81;21352;-78
2021/06/06 03:05:20;;;;;;;5.78;3.60;;;;;;;33.47;44.41;159986.33;1767072;81;21332;-79
2021/06/06 03:07:55;;;;;;;6.53;3.62;;;;;;;33.49;44.55;159991.69;1767021;81;21347;-79
2021/06/06 03:10:32;;;;;;;8.78;3.83;;;;;;;33.48;44.41;159989.00;1767060;81;21329;-79
2021/06/06 03:13:21;;;;;;;8.33;3.47;;;;;;;33.47;44.40;159986.33;1767076;81;21713;-79
2021/06/06 03:15:57;;;;;;;6.05;3.80;;;;;;;33.49;44.51;159993.05;1767195;81;21649;-78
2021/06/06 03:18:35;;;;;;;6.40;3.65;;;;;;;33.46;44.76;159985.02;1766842;81;21422;-78
2021/06/06 03:21:28;;;;;;;6.30;3.50;;;;;;;33.44;45.11;159978.36;1773212;81;21166;-79
2021/06/06 03:24:16;;;;;;;7.47;3.85;;;;;;;33.44;45.29;159979.67;1767218;81;21372;-79
2021/06/06 03:26:50;;;;;;;12.13;5.30;;;;;;;33.45;45.47;159982.34;1765006;81;21316;-79
2021/06/06 03:29:31;;;;;;;4.97;3.55;;;;;;;33.44;45.71;159979.67;1767236;81;22006;-78
2021/06/06 03:32:10;;;;;;;4.15;2.70;;;;;;;33.57;45.47;160013.03;1767012;81;21300;-78
2021/06/06 03:34:43;;;;;;;5.28;3.40;;;;;;;33.59;45.27;160019.75;1767184;81;21225;-78
2021/06/06 03:37:16;;;;;;;7.80;3.50;;;;;;;33.61;45.64;160025.16;1767017;81;21363;-78
2021/06/06 03:39:59;;;;;;;6.55;3.87;;;;;;;33.62;45.93;160026.47;1767623;81;21411;-79
2021/06/06 03:42:33;;;;;;;6.90;3.22;;;;;;;33.62;46.42;160026.47;1767305;81;21364;-78
2021/06/06 03:45:09;;;;;;;5.35;3.50;;;;;;;33.56;47.00;160011.72;1767023;80;21689;-79
2021/06/06 03:47:41;;;;;;;7.87;3.62;;;;;;;33.65;47.39;160035.81;1766936;81;21199;-79
2021/06/06 03:50:16;;;;;;;7.53;3.58;;;;;;;33.77;47.58;160067.88;1767030;81;21316;-78
2021/06/06 03:52:51;;;;;;;8.30;3.98;;;;;;;33.74;47.93;160058.53;1780533;80;21232;-78
2021/06/06 03:55:24;;;;;;;4.90;3.80;;;;;;;33.75;48.14;160061.20;1791923;80;21182;-78
2021/06/06 03:57:57;;;;;;;6.08;3.35;;;;;;;33.77;48.48;160067.88;1791756;80;21332;-79
2021/06/06 04:00:36;;;;;;;9.15;3.85;;;;;;;33.81;48.49;160077.22;1791552;80;21217;-79
2021/06/06 04:03:08;;;;;;;9.63;3.60;;;;;;;33.77;48.70;160066.56;1791986;80;21696;-79
2021/06/06 04:05:46;;;;;;;10.95;3.70;;;;;;;33.83;48.64;160082.56;1791150;80;21962;-78
2021/06/06 04:08:20;;;;;;;4.75;3.40;;;;;;;33.93;48.68;160110.63;1791660;80;21379;-79
2021/06/06 04:10:54;;;;;;;6.25;3.58;;;;;;;34.03;48.38;160136.03;1791957;80;21692;-78
2021/06/06 04:13:29;;;;;;;8.10;3.50;;;;;;;34.07;48.28;160146.69;1791837;80;21173;-78
2021/06/06 04:16:02;;;;;;;6.47;3.55;;;;;;;34.01;48.46;160132.00;1792041;80;21332;-77
2021/06/06 04:18:36;;;;;;;5.62;3.80;;;;;;;34.05;48.40;160141.34;1791707;80;21371;-76
2021/06/06 04:21:18;;;;;;;7.22;3.15;;;;;;;34.11;48.30;160158.75;1791978;80;21853;-78
2021/06/06 04:23:51;;;;;;;5.67;3.35;;;;;;;34.14;48.42;160168.09;1792034;80;21340;-77
2021/06/06 04:26:23;;;;;;;6.90;3.60;;;;;;;34.17;48.66;160176.12;1791973;80;21320;-77
2021/06/06 04:28:58;;;;;;;6.62;3.40;;;;;;;34.16;49.00;160173.45;1793729;80;21221;-77
2021/06/06 04:31:32;;;;;;;6.72;3.10;;;;;;;34.14;48.95;160166.80;1791726;80;21843;-78
2021/06/06 04:34:06;;;;;;;6.33;3.55;;;;;;;34.20;48.98;160182.86;1791990;80;21886;-77
2021/06/06 04:36:39;;;;;;;8.08;3.27;;;;;;;34.22;48.95;160189.52;1791832;80;21189;-78
2021/06/06 04:39:13;;;;;;;7.08;3.67;;;;;;;34.33;48.51;160218.91;1791791;80;21241;-77
2021/06/06 04:41:47;;;;;;;5.17;3.12;;;;;;;34.36;48.43;160226.94;1792026;80;21240;-78
2021/06/06 04:44:20;;;;;;;3.45;2.67;;;;;;;34.45;48.89;160249.63;1791962;80;21179;-78
2021/06/06 04:46:55;;;;;;;4.85;2.85;;;;;;;34.51;48.82;160267.00;1791866;80;21241;-78
2021/06/06 04:49:28;;;;;;;7.20;3.33;;;;;;;34.62;48.65;160296.45;1792107;80;21233;-78
2021/06/06 04:52:03;;;;;;;4.22;2.90;;;;;;;34.67;48.61;160308.47;1791877;80;21736;-78
2021/06/06 04:54:38;;;;;;;4.95;2.92;;;;;;;34.72;48.42;160321.88;1791622;80;21245;-77
2021/06/06 04:57:10;;;;;;;4.50;2.95;;;;;;;34.76;48.28;160333.89;1791991;80;21799;-78
2021/06/06 04:59:44;;;;;;;5.50;3.30;;;;;;;34.82;48.36;160348.59;1791736;80;21367;-78
2021/06/06 05:02:17;;;;;;;7.97;3.10;;;;;;;34.81;48.63;160347.28;1791828;80;21316;-77
2021/06/06 05:04:51;;;;;;;3.98;3.17;;;;;;;34.91;48.49;160374.02;1791706;80;21320;-78
2021/06/06 05:07:25;;;;;;;3.90;2.70;;;;;;;34.97;48.29;160390.03;1791752;80;21166;-78
2021/06/06 05:09:58;;;;;;;5.55;2.87;;;;;;;34.97;48.24;160388.72;1791859;80;21717;-78
2021/06/06 05:12:32;;;;;;;7.60;3.00;;;;;;;34.99;48.10;160395.39;1791825;80;21319;-78
2021/06/06 05:15:07;;;;;;;5.03;3.15;;;;;;;35.03;48.16;160406.09;1791710;80;21327;-78
2021/06/06 05:17:39;;;;;;;6.33;3.00;;;;;;;35.02;48.53;160403.42;1791931;80;21808;-78
2021/06/06 05:20:14;;;;;;;3.70;2.85;;;;;;;35.11;48.61;160427.53;1791868;80;21236;-78
2021/06/06 05:22:46;;;;;;;8.73;4.72;;;;;;;35.14;49.03;160435.56;1791778;80;21343;-77
2021/06/06 05:25:19;;;;;;;7.25;3.72;;;;;;;35.10;49.33;160423.53;1791779;80;21328;-78
2021/06/06 05:27:53;;;;;;;5.03;3.50;;;;;;;35.09;49.45;160420.86;1791842;80;21229;-77
2021/06/06 05:30:29;;;;;;;4.40;3.40;;;;;;;35.05;49.68;160410.09;1793747;80;21410;-79
2021/06/06 05:33:01;;;;;;;4.30;3.08;;;;;;;35.14;49.70;160435.56;1791811;80;21335;-78
2021/06/06 05:35:34;;;;;;;4.58;3.08;;;;;;;35.16;49.71;160442.23;1792095;80;21276;-78
2021/06/06 05:38:09;;;;;;;5.42;3.55;;;;;;;35.19;49.72;160448.91;1793721;80;21812;-78
2021/06/06 05:40:41;;;;;;;9.80;3.00;;;;;;;35.19;49.53;160450.27;1791770;80;21185;-78
2021/06/06 05:43:17;;;;;;;3.60;2.65;;;;;;;35.20;49.78;160451.58;1792051;80;21272;-78
2021/06/06 05:45:50;;;;;;;6.05;2.80;;;;;;;35.25;49.95;160464.97;1791838;80;21328;-78
2021/06/06 05:48:23;;;;;;;7.28;3.90;;;;;;;35.31;50.64;160481.00;1791731;80;21328;-78
2021/06/06 05:51:01;;;;;;;7.12;4.12;;;;;;;35.33;50.83;160486.36;1791827;80;21209;-78
2021/06/06 05:53:54;;;;;;;2.95;2.50;;;;;;;35.30;50.48;160479.69;1791249;80;21331;-78
2021/06/06 05:56:27;;;;;;;6.45;2.17;;;;;;;35.33;50.14;160486.36;1791639;80;21367;-78
2021/06/06 05:59:00;;;;;;;2.92;2.25;;;;;;;35.34;50.09;160489.03;1791737;80;21190;-78
2021/06/06 06:01:33;;;;;;;3.00;2.40;;;;;;;35.37;49.99;160498.38;1791796;80;21336;-78
2021/06/06 06:04:07;;;;;;;6.45;2.80;;;;;;;35.33;49.81;160487.72;1791788;80;21352;-78
2021/06/06 06:06:39;;;;;;;4.03;2.67;;;;;;;35.33;49.44;160487.72;1792001;80;21399;-78
2021/06/06 06:09:12;;;;;;;4.20;2.33;;;;;;;35.40;49.31;160505.11;1791779;80;21317;-78
2021/06/06 06:11:45;;;;;;;5.65;2.77;;;;;;;35.41;49.50;160509.09;1791768;80;21205;-78
2021/06/06 06:14:17;;;;;;;3.55;2.70;;;;;;;35.41;49.57;160507.78;1791932;80;21221;-78
2021/06/06 06:16:50;;;;;;;4.45;2.42;;;;;;;35.46;49.51;160521.13;1791874;80;21681;-78
2021/06/06 06:19:22;;;;;;;3.27;2.30;;;;;;;35.45;49.60;160518.45;1791998;80;21236;-78
2021/06/06 06:21:56;;;;;;;6.33;2.17;;;;;;;35.49;49.69;160530.48;1791756;80;21343;-79
2021/06/06 06:24:28;;;;;;;7.37;2.50;;;;;;;35.53;49.62;160541.25;1791856;80;21363;-78
2021/06/06 06:27:02;;;;;;;5.83;2.40;;;;;;;35.54;49.49;160543.94;1791768;80;21233;-78
2021/06/06 06:29:39;;;;;;;4.30;2.50;;;;;;;35.59;49.35;160555.97;1791910;80;21372;-78
2021/06/06 06:32:29;;;;;;;7.67;2.02;;;;;;;35.69;48.87;160584.06;1791877;80;21225;-78
2021/06/06 06:35:01;;;;;;;3.87;2.02;;;;;;;35.73;48.35;160594.73;1792093;80;21855;-78
2021/06/06 06:37:33;;;;;;;5.70;2.00;;;;;;;35.81;47.80;160614.81;1791937;80;21832;-78
2021/06/06 06:40:08;;;;;;;8.33;2.22;;;;;;;35.90;47.03;160638.87;1791803;80;21344;-77
2021/06/06 06:42:41;;;;;;;14.10;2.47;;;;;;;35.95;46.49;160652.28;1791749;80;21331;-78
2021/06/06 06:45:16;;;;;;;4.92;1.77;;;;;;;36.01;46.24;160668.36;1791807;80;21336;-78
2021/06/06 06:47:48;;;;;;;2.58;1.75;;;;;;;36.05;46.12;160680.44;1791987;80;21693;-78
2021/06/06 06:50:21;;;;;;;3.05;1.87;;;;;;;36.08;46.03;160688.44;1791702;80;21190;-78
2021/06/06 06:52:53;;;;;;;4.70;2.00;;;;;;;36.12;45.81;160700.47;1791834;80;21324;-78
2021/06/06 06:55:26;;;;;;;2.98;1.98;;;;;;;36.16;45.39;160709.87;1787954;80;21273;-78
2021/06/06 06:58:01;;;;;;;5.97;2.77;;;;;;;36.22;44.49;160725.91;1766940;81;21244;-78
2021/06/06 07:00:43;;;;;;;2.90;1.80;;;;;;;36.22;44.36;160725.91;1767091;81;21339;-78
2021/06/06 07:03:20;;;;;;;3.42;1.90;;;;;;;36.23;44.40;160729.91;1766978;81;21447;-77
2021/06/06 07:05:54;;;;;;;4.15;1.70;;;;;;;36.23;44.24;160728.59;1767088;81;21186;-78
2021/06/06 07:08:30;;;;;;;3.85;1.77;;;;;;;36.23;44.00;160728.59;1767163;81;21819;-78
2021/06/06 07:11:04;;;;;;;3.22;2.17;;;;;;;36.22;43.69;160727.28;1766967;81;21209;-78
2021/06/06 07:13:38;;;;;;;3.95;1.70;;;;;;;36.22;43.62;160725.91;1767157;81;21268;-78
2021/06/06 07:16:13;;;;;;;2.85;1.47;;;;;;;36.15;43.85;160707.19;1767017;81;21241;-78
2021/06/06 07:18:46;;;;;;;3.27;1.27;;;;;;;36.16;43.62;160709.87;1767111;80;21648;-78
2021/06/06 07:21:22;;;;;;;1.80;1.37;;;;;;;36.21;43.51;160723.22;1767052;81;21174;-78
2021/06/06 07:23:57;;;;;;;26.85;17.70;;;;;;;36.23;43.45;160729.91;1766900;81;21243;-78
2021/06/06 07:26:32;;;;;;;11.95;8.18;;;;;;;36.25;43.45;160735.27;1767002;81;21313;-78
2021/06/06 07:29:09;;;;;;;7.58;5.42;;;;;;;36.30;43.78;160747.30;1773086;81;21323;-77
2021/06/06 07:31:43;;;;;;;7.78;3.90;;;;;;;36.39;44.43;160772.75;1767678;81;21249;-78
2021/06/06 07:34:17;;;;;;;5.90;3.55;;;;;;;36.41;44.90;160778.09;1766552;81;21403;-79
2021/06/06 07:36:53;;;;;;;7.78;3.00;;;;;;;36.43;45.44;160783.47;1766216;81;21233;-79
2021/06/06 07:39:25;;;;;;;6.05;2.67;;;;;;;36.45;45.77;160787.50;1765817;81;21233;-80
2021/06/06 07:41:59;;;;;;;5.87;2.20;;;;;;;36.43;46.17;160783.47;1766930;80;21779;-80
2021/06/06 07:44:31;;;;;;;4.20;2.15;;;;;;;36.43;46.67;160782.09;1766866;81;21193;-79
2021/06/06 07:47:06;;;;;;;3.67;2.10;;;;;;;36.42;47.03;160779.41;1766988;81;21217;-79
2021/06/06 07:49:39;;;;;;;6.50;2.17;;;;;;;36.52;47.50;160807.59;1767020;81;21323;-80
2021/06/06 07:52:11;;;;;;;2.58;1.57;;;;;;;36.53;47.89;160808.91;1767224;81;21320;-79
2021/06/06 07:54:45;;;;;;;4.12;1.95;;;;;;;36.52;47.70;160806.23;1767076;81;21348;-80
2021/06/06 07:57:18;;;;;;;5.58;2.10;;;;;;;36.50;47.36;160802.23;1767043;81;21874;-80
2021/06/06 07:59:51;;;;;;;2.55;1.82;;;;;;;36.58;47.34;160822.31;1767137;81;21363;-80
2021/06/06 08:02:23;;;;;;;2.40;1.60;;;;;;;36.52;47.50;160807.59;1767018;81;21221;-80
2021/06/06 08:04:56;;;;;;;3.98;2.02;;;;;;;36.76;47.11;160871.84;1766849;81;21665;-80
2021/06/06 08:07:30;;;;;;;5.67;2.02;;;;;;;36.97;46.63;160926.80;1766934;81;21364;-80
2021/06/06 08:10:02;;;;;;;2.55;1.90;;;;;;;36.71;47.02;160858.44;1766920;81;21323;-79
2021/06/06 08:12:35;;;;;;;2.92;1.98;;;;;;;36.95;46.69;160922.75;1767071;81;21388;-80
2021/06/06 08:15:08;;;;;;;2.98;1.85;;;;;;;36.88;46.78;160903.97;1766981;81;21317;-79
2021/06/06 08:17:41;;;;;;;2.58;1.87;;;;;;;36.89;46.59;160906.66;1766780;81;21804;-79
2021/06/06 08:20:18;;;;;;;3.10;1.90;;;;;;;36.91;46.58;160910.70;1766608;80;21182;-80
2021/06/06 08:22:51;;;;;;;3.17;1.92;;;;;;;36.92;46.49;160913.37;1766777;80;21174;-79
2021/06/06 08:25:24;;;;;;;4.00;2.00;;;;;;;36.95;46.47;160921.42;1766857;81;21308;-79
2021/06/06 08:27:56;;;;;;;3.52;1.67;;;;;;;36.92;46.45;160913.37;1767215;81;21772;-80
2021/06/06 08:30:34;;;;;;;2.60;1.40;;;;;;;36.92;46.13;160914.75;1766867;81;21369;-79
2021/06/06 08:33:09;;;;;;;4.37;3.05;;;;;;;36.89;45.95;160906.66;1765702;81;21174;-80
2021/06/06 08:35:43;;;;;;;7.25;3.60;;;;;;;37.01;45.73;160938.83;1767324;81;21339;-80
2021/06/06 08:38:15;;;;;;;6.22;2.52;;;;;;;37.01;45.58;160938.83;1766540;81;21232;-80
2021/06/06 08:41:17;;;;;;;2.90;2.35;;;;;;;37.03;45.48;160945.52;1766841;81;21339;-79
2021/06/06 08:44:09;;;;;;;6.05;2.40;;;;;;;37.04;45.31;160946.83;1766869;81;21391;-79
2021/06/06 08:47:01;;;;;;;6.37;1.77;;;;;;;36.99;45.37;160932.09;1766548;81;21412;-80
2021/06/06 08:49:47;;;;;;;4.05;1.82;;;;;;;36.99;45.51;160933.47;1766949;81;21324;-79
2021/06/06 08:52:50;;;;;;;8.55;4.20;;;;;;;36.95;45.64;160921.42;1766947;81;21764;-79
2021/06/06 08:55:41;;;;;;;5.30;2.87;;;;;;;37.03;45.35;160942.83;1767114;81;21268;-79
2021/06/06 08:58:27;;;;;;;5.42;2.35;;;;;;;36.95;45.53;160922.75;1767070;80;21398;-79
2021/06/06 09:01:03;;;;;;;3.67;1.40;;;;;;;36.94;45.26;160918.75;1767029;80;21371;-79
2021/06/06 09:03:36;;;;;;;4.75;1.50;;;;;;;36.92;44.79;160913.37;1751935;81;21471;-79
2021/06/06 09:06:13;;;;;;;4.47;1.75;;;;;;;36.94;44.62;160920.06;1767064;81;21700;-80
2021/06/06 09:08:46;;;;;;;1.90;1.70;;;;;;;37.03;44.45;160945.52;1766957;81;21185;-80
2021/06/06 09:11:21;;;;;;;5.90;1.27;;;;;;;37.02;43.95;160940.16;1767162;81;21189;-80
2021/06/06 09:13:56;;;;;;;2.17;1.42;;;;;;;36.90;43.93;160909.39;1748696;81;21205;-79
2021/06/06 09:17:00;;;;;;;5.47;1.75;;;;;;;36.77;43.86;160873.16;1766993;81;21324;-79
2021/06/06 09:19:52;;;;;;;3.02;1.50;;;;;;;36.70;43.61;160854.44;1766760;81;21815;-80
2021/06/06 09:22:40;;;;;;;2.00;1.40;;;;;;;36.72;43.39;160859.80;1767085;81;21312;-80
2021/06/06 09:25:28;;;;;;;1.80;1.25;;;;;;;36.67;43.38;160846.39;1767057;81;21210;-79
2021/06/06 09:28:17;;;;;;;4.42;1.47;;;;;;;36.69;43.33;160851.75;1767222;81;21367;-79
2021/06/06 09:31:12;;;;;;;2.77;1.40;;;;;;;36.69;43.38;160853.08;1767043;81;21190;-79
2021/06/06 09:33:48;;;;;;;1.25;1.10;;;;;;;36.63;43.73;160837.03;1762056;81;21331;-79
2021/06/06 09:36:38;;;;;;;1.67;1.22;;;;;;;36.63;43.58;160837.03;1767006;81;21245;-79
2021/06/06 09:39:21;;;;;;;2.05;1.35;;;;;;;36.62;43.73;160834.34;1767260;81;21499;-79
2021/06/06 09:41:58;;;;;;;2.70;1.35;;;;;;;36.53;44.30;160810.28;1767076;81;21356;-79
2021/06/06 09:44:33;;;;;;;1.52;1.35;;;;;;;36.50;44.60;160800.92;1767175;81;21335;-79
2021/06/06 09:47:13;;;;;;;4.62;1.70;;;;;;;36.53;45.08;160810.28;1767248;81;21188;-80
2021/06/06 09:49:48;;;;;;;3.87;1.60;;;;;;;36.51;45.64;160804.91;1767239;80;21332;-79
2021/06/06 09:52:40;;;;;;;3.60;1.95;;;;;;;36.52;46.11;160806.23;1767101;81;21371;-80
2021/06/06 09:55:12;;;;;;;6.05;2.55;;;;;;;36.43;46.68;160783.47;1767422;81;21209;-79
2021/06/06 09:57:45;;;;;;;3.83;2.08;;;;;;;36.41;47.00;160778.09;1788683;80;21173;-79
2021/06/06 10:00:29;;;;;;;3.72;1.85;;;;;;;36.50;47.48;160802.23;1790812;80;21339;-79
2021/06/06 10:03:06;;;;;;;2.58;2.10;;;;;;;36.58;47.75;160822.31;1791729;80;21173;-78
2021/06/06 10:05:41;;;;;;;3.80;2.15;;;;;;;36.52;48.09;160807.59;1791784;79;21373;-78
2021/06/06 10:08:25;;;;;;;5.55;2.02;;;;;;;36.48;48.06;160796.88;1791674;80;21165;-79
2021/06/06 10:11:18;;;;;;;5.78;2.08;;;;;;;36.49;48.15;160798.23;1791838;79;21152;-80
2021/06/06 10:13:51;;;;;;;3.72;1.70;;;;;;;36.41;48.41;160776.73;1791967;80;21723;-78
2021/06/06 10:16:31;;;;;;;3.67;2.25;;;;;;;36.40;48.64;160774.11;1791954;80;21256;-78
2021/06/06 10:19:15;;;;;;;3.50;2.20;;;;;;;36.44;48.71;160784.78;1791987;80;21208;-78
2021/06/06 10:21:48;;;;;;;4.83;1.80;;;;;;;36.46;48.71;160791.50;1791839;80;21374;-78
2021/06/06 10:24:37;;;;;;;2.10;1.50;;;;;;;36.47;48.73;160792.88;1791793;80;21181;-78
2021/06/06 10:27:21;;;;;;;4.15;1.80;;;;;;;36.49;48.45;160798.23;1791746;80;21212;-78
2021/06/06 10:29:58;;;;;;;3.67;2.00;;;;;;;36.65;47.84;160841.03;1791703;80;21164;-78
2021/06/06 10:32:43;;;;;;;6.42;1.82;;;;;;;36.72;47.47;160861.12;1790546;80;21370;-79
2021/06/06 10:35:21;;;;;;;4.25;1.90;;;;;;;36.75;47.03;160867.84;1791794;80;21184;-79
2021/06/06 10:37:56;;;;;;;2.35;2.00;;;;;;;36.80;46.37;160881.20;1767851;80;21315;-78
2021/06/06 10:40:47;;;;;;;3.67;2.27;;;;;;;36.65;46.68;160841.03;1791775;80;21359;-78
2021/06/06 10:43:42;;;;;;;2.67;1.67;;;;;;;36.63;46.90;160837.03;1792151;80;21335;-78
2021/06/06 10:46:42;;;;;;;3.37;1.77;;;;;;;36.76;44.89;160871.84;1791343;80;21240;-78
2021/06/06 10:49:35;;;;;;;2.95;1.65;;;;;;;36.79;44.71;160879.87;1791836;80;21672;-79
2021/06/06 10:52:08;;;;;;;;;;;;;;;36.81;44.43;160885.20;1794473;80;21303;-78
2021/06/06 10:54:50;;;;;;;1.55;1.17;;;;;;;36.82;44.06;160886.56;1790219;80;20517;-78
2021/06/06 10:57:36;;;;;;;3.17;1.30;;;;;;;36.81;44.13;160885.20;1755220;82;21298;-78
2021/06/06 11:00:16;;;;;;;3.17;2.02;;;;;;;36.79;43.63;160878.52;1752558;82;21194;-78
2021/06/06 11:02:56;;;;;;;1.90;1.20;;;;;;;36.85;43.47;160894.61;1746897;82;21828;-78
2021/06/06 11:05:36;;;;;;;3.70;1.42;;;;;;;36.92;43.40;160913.37;1747082;82;21186;-78
2021/06/06 11:08:33;;;;;;;2.30;1.35;;;;;;;37.02;43.73;160941.52;1747055;82;21360;-79
2021/06/06 11:11:23;;;;;;;3.33;1.80;;;;;;;37.09;44.21;160960.23;1746845;82;21356;-78
2021/06/06 11:14:13;;;;;;;4.40;1.37;;;;;;;37.23;43.46;160999.06;1746894;82;21242;-78
2021/06/06 11:16:52;;;;;;;3.33;1.70;;;;;;;37.29;43.10;161015.14;1747042;82;21203;-79
2021/06/06 11:19:33;;;;;;;2.40;1.67;;;;;;;37.35;43.15;161029.94;1746917;82;21364;-78
2021/06/06 11:22:17;;;;;;;4.53;1.42;;;;;;;37.46;42.89;161059.38;1747010;82;21329;-78
2021/06/06 11:24:53;;;;;;;3.30;1.60;;;;;;;37.61;42.52;161099.58;1747150;82;21864;-78
2021/06/06 11:27:31;;;;;;;1.82;1.50;;;;;;;37.71;42.27;161126.34;1746922;82;21337;-79
2021/06/06 11:30:11;;;;;;;4.62;1.80;;;;;;;37.73;41.91;161131.72;1746819;82;21360;-81
2021/06/06 11:32:58;;;;;;;6.50;1.87;;;;;;;37.82;42.09;161155.88;1734470;82;21206;-79
2021/06/06 11:35:47;;;;;;;6.47;2.27;;;;;;;37.88;42.13;161171.92;1747192;82;21320;-80
2021/06/06 11:38:45;;;;;;;5.42;3.27;;;;;;;37.97;42.55;161196.02;1746839;82;21357;-79
2021/06/06 11:41:37;;;;;;;3.80;2.25;;;;;;;38.07;42.64;161225.53;1746969;82;21191;-78
2021/06/06 11:44:31;;;;;;;7.05;1.90;;;;;;;38.19;42.15;161257.70;1746935;82;21321;-79
2021/06/06 11:47:15;;;;;;;6.65;2.65;;;;;;;38.25;42.15;161273.81;1746910;82;21388;-80
2021/06/06 11:50:01;;;;;;;3.25;2.27;;;;;;;38.42;41.96;161318.02;1746970;82;21441;-79
2021/06/06 11:52:49;;;;;;;4.33;2.52;;;;;;;38.59;41.53;161363.59;1747103;82;21182;-79
2021/06/06 11:55:32;;;;;;;4.62;2.05;;;;;;;38.61;41.55;161370.28;1745919;81;21176;-79
2021/06/06 11:58:18;;;;;;;2.92;2.10;;;;;;;38.85;41.77;161434.67;1746930;81;21317;-78
2021/06/06 12:01:16;;;;;;;2.25;1.92;;;;;;;39.00;41.44;161474.91;1748139;81;21198;-79
2021/06/06 12:03:50;;;;;;;6.83;2.22;;;;;;;38.97;41.33;161468.16;1756268;82;21192;-79
2021/06/06 12:06:30;;;;;;;5.70;2.30;;;;;;;39.02;41.44;161480.22;1756426;82;21186;-79
2021/06/06 12:09:02;;;;;;;3.65;2.30;;;;;;;39.10;41.29;161503.08;1756218;82;21701;-79
2021/06/06 12:11:36;;;;;;;3.25;1.95;;;;;;;39.23;41.03;161537.94;1755755;81;21167;-79
2021/06/06 12:14:22;;;;;;;4.45;2.27;;;;;;;39.29;40.24;161552.69;1756119;81;21270;-79
2021/06/06 12:17:08;;;;;;;4.03;2.20;;;;;;;39.41;39.63;161586.19;1756442;82;21201;-79